createdAt,value
2016-11-28T00:00:17.487Z,1.8
2016-11-28T00:01:17.505Z,1.77
2016-11-28T00:02:17.519Z,1.76
2016-11-28T00:03:17.528Z,1.69
2016-11-28T00:04:17.542Z,1.66
2016-11-28T00:05:17.561Z,1.73
2016-11-28T00:06:17.577Z,1.7
2016-11-28T00:07:17.621Z,1.76
2016-11-28T00:09:17.617Z,1.63
2016-11-28T00:10:32.562Z,1.7
2016-11-28T00:11:17.651Z,1.79
2016-11-28T00:12:17.674Z,1.69
2016-11-28T00:13:17.687Z,1.62
2016-11-28T00:14:17.702Z,1.7
2016-11-28T00:15:17.720Z,1.7
2016-11-28T00:16:17.735Z,1.63
2016-11-28T00:17:17.754Z,1.63
2016-11-28T00:18:17.760Z,1.68
2016-11-28T00:19:17.780Z,1.7
2016-11-28T00:20:17.796Z,1.66
2016-11-28T00:21:18.116Z,1.68
2016-11-28T00:22:17.821Z,1.65
2016-11-28T00:23:17.836Z,1.7
2016-11-28T00:25:17.865Z,1.62
2016-11-28T00:27:32.872Z,1.54
2016-11-28T00:28:17.913Z,1.6
2016-11-28T00:29:17.935Z,1.62
2016-11-28T00:30:17.944Z,1.54
2016-11-28T00:31:17.958Z,1.58
2016-11-28T00:32:17.972Z,1.54
2016-11-28T00:33:17.991Z,1.69
2016-11-28T00:34:18.000Z,1.58
2016-11-28T00:35:18.034Z,1.55
2016-11-28T00:36:18.036Z,1.6
2016-11-28T00:37:18.048Z,1.58
2016-11-28T00:38:18.068Z,1.62
2016-11-28T00:39:18.078Z,1.63
2016-11-28T00:40:18.098Z,1.63
2016-11-28T00:41:18.111Z,1.52
2016-11-28T00:42:18.133Z,1.62
2016-11-28T00:43:33.066Z,1.45
2016-11-28T00:44:33.079Z,1.41
2016-11-28T00:45:33.094Z,1.3
2016-11-28T00:46:18.185Z,1.45
2016-11-28T00:47:18.206Z,1.33
2016-11-28T00:48:18.212Z,1.41
2016-11-28T00:49:18.233Z,1.34
2016-11-28T00:50:18.246Z,1.3
2016-11-28T00:51:18.270Z,1.45
2016-11-28T00:52:18.282Z,1.41
2016-11-28T00:53:18.294Z,1.34
2016-11-28T00:54:18.314Z,1.37
2016-11-28T00:55:18.325Z,1.36
2016-11-28T00:57:18.352Z,1.22
2016-11-28T00:58:18.518Z,1.18
2016-11-28T00:59:33.306Z,1.3
2016-11-28T01:00:18.398Z,1.34
2016-11-28T01:01:18.412Z,1.29
2016-11-28T01:02:18.429Z,1.34
2016-11-28T01:03:18.443Z,1.36
2016-11-28T01:04:18.465Z,1.34
2016-11-28T01:05:18.472Z,1.33
2016-11-28T01:06:18.488Z,1.36
2016-11-28T01:07:18.554Z,1.24
2016-11-28T01:08:18.520Z,1.26
2016-11-28T01:09:18.534Z,1.27
2016-11-28T01:10:18.549Z,1.2
2016-11-28T01:11:18.559Z,1.37
2016-11-28T01:12:18.584Z,1.23
2016-11-28T01:14:18.605Z,1.37
2016-11-28T01:15:33.546Z,1.36
2016-11-28T01:16:18.636Z,1.26
2016-11-28T01:17:18.650Z,1.3
2016-11-28T01:18:18.667Z,1.34
2016-11-28T01:19:18.681Z,1.36
2016-11-28T01:20:18.703Z,1.32
2016-11-28T01:21:18.718Z,1.23
2016-11-28T01:22:18.730Z,1.32
2016-11-28T01:23:18.740Z,1.26
2016-11-28T01:24:18.758Z,1.3
2016-11-28T01:25:19.073Z,1.3
2016-11-28T01:26:18.796Z,1.27
2016-11-28T01:27:18.796Z,1.18
2016-11-28T01:28:18.817Z,1.15
2016-11-28T01:29:33.757Z,1.22
2016-11-28T01:30:33.768Z,1.3
2016-11-28T01:31:33.782Z,1.22
2016-11-28T01:32:18.878Z,1.23
2016-11-28T01:33:33.810Z,1.27
2016-11-28T01:34:18.908Z,1.18
2016-11-28T01:35:18.924Z,1.15
2016-11-28T01:36:18.938Z,1.23
2016-11-28T01:37:18.951Z,1.22
2016-11-28T01:38:18.963Z,1.29
2016-11-28T01:39:18.984Z,1.32
2016-11-28T01:40:18.999Z,1.26
2016-11-28T01:41:19.009Z,1.15
2016-11-28T01:42:19.027Z,1.23
2016-11-28T01:43:19.041Z,1.09
2016-11-28T01:44:19.061Z,1.14
2016-11-28T01:45:19.378Z,1.09
2016-11-28T01:46:19.090Z,1.14
2016-11-28T01:47:19.100Z,1.14
2016-11-28T01:48:19.120Z,1.02
2016-11-28T01:49:19.136Z,1.15
2016-11-28T01:50:19.149Z,1.15
2016-11-28T01:51:19.164Z,1.05
2016-11-28T01:52:19.175Z,1.24
2016-11-28T01:53:19.517Z,1.12
2016-11-28T01:54:19.207Z,1.02
2016-11-28T01:55:19.212Z,1.08
2016-11-28T01:56:19.230Z,1.08
2016-11-28T01:57:19.246Z,1.06
2016-11-28T01:58:19.262Z,1.08
2016-11-28T01:59:19.278Z,1.11
2016-11-28T02:00:19.298Z,1.08
2016-11-28T02:01:34.232Z,1
2016-11-28T02:02:34.245Z,1.02
2016-11-28T02:03:19.337Z,1.11
2016-11-28T02:04:19.352Z,0.98
2016-11-28T02:05:34.288Z,0.97
2016-11-28T02:06:19.383Z,1.04
2016-11-28T02:07:19.397Z,1.04
2016-11-28T02:08:19.460Z,1.15
2016-11-28T02:09:19.427Z,1.08
2016-11-28T02:10:19.446Z,1.09
2016-11-28T02:11:19.455Z,1.04
2016-11-28T02:12:19.471Z,1.04
2016-11-28T02:14:19.498Z,1.04
2016-11-28T02:15:19.514Z,1.08
2016-11-28T02:16:19.535Z,1.06
2016-11-28T02:17:19.541Z,1.15
2016-11-28T02:18:34.484Z,1.11
2016-11-28T02:19:19.573Z,1.12
2016-11-28T02:20:19.620Z,1.12
2016-11-28T02:21:19.911Z,1.05
2016-11-28T02:22:19.615Z,1.05
2016-11-28T02:23:19.633Z,1.08
2016-11-28T02:24:19.697Z,1.14
2016-11-28T02:25:19.973Z,1.15
2016-11-28T02:26:19.681Z,1.05
2016-11-28T02:27:19.690Z,1.02
2016-11-28T02:28:19.708Z,1.16
2016-11-28T02:29:19.721Z,1.14
2016-11-28T02:31:19.751Z,1.04
2016-11-28T02:32:34.691Z,1.12
2016-11-28T02:33:19.791Z,0.98
2016-11-28T02:34:34.722Z,0.97
2016-11-28T02:35:19.811Z,1.05
2016-11-28T02:36:19.829Z,1.14
2016-11-28T02:37:19.841Z,1.08
2016-11-28T02:38:19.856Z,1.04
2016-11-28T02:39:19.869Z,1.06
2016-11-28T02:40:19.891Z,1.12
2016-11-28T02:41:19.903Z,1.16
2016-11-28T02:42:19.912Z,1.06
2016-11-28T02:43:19.931Z,1.16
2016-11-28T02:44:19.944Z,1.14
2016-11-28T02:45:19.954Z,1.16
2016-11-28T02:46:19.972Z,1.12
2016-11-28T02:47:19.989Z,1.2
2016-11-28T02:48:20.002Z,1.05
2016-11-28T02:49:20.022Z,1.16
2016-11-28T02:50:34.951Z,1.02
2016-11-28T02:51:20.047Z,1.06
2016-11-28T02:52:34.982Z,1.11
2016-11-28T02:53:20.074Z,1.09
2016-11-28T02:54:20.101Z,1.05
2016-11-28T02:55:20.103Z,1.09
2016-11-28T02:56:20.113Z,0.98
2016-11-28T02:57:20.136Z,0.93
2016-11-28T02:58:20.153Z,0.97
2016-11-28T02:59:20.170Z,0.94
2016-11-28T03:00:20.185Z,0.96
2016-11-28T03:01:20.194Z,0.97
2016-11-28T03:02:20.233Z,0.97
2016-11-28T03:03:20.229Z,1.02
2016-11-28T03:04:20.241Z,1.11
2016-11-28T03:05:35.179Z,0.98
2016-11-28T03:06:20.303Z,0.94
2016-11-28T03:07:20.288Z,1.05
2016-11-28T03:08:20.303Z,1
2016-11-28T03:09:20.311Z,0.98
2016-11-28T03:10:20.331Z,0.94
2016-11-28T03:11:20.336Z,0.97
2016-11-28T03:12:20.652Z,0.86
2016-11-28T03:13:20.376Z,0.84
2016-11-28T03:14:20.397Z,0.84
2016-11-28T03:15:20.400Z,0.69
2016-11-28T03:17:20.483Z,0.65
2016-11-28T03:18:20.441Z,0.68
2016-11-28T03:19:20.453Z,0.76
2016-11-28T03:21:20.483Z,0.7
2016-11-28T03:22:20.514Z,0.83
2016-11-28T03:23:35.438Z,0.86
2016-11-28T03:24:20.540Z,0.88
2016-11-28T03:25:20.548Z,0.7
2016-11-28T03:26:20.868Z,0.88
2016-11-28T03:27:20.577Z,0.76
2016-11-28T03:28:20.592Z,0.7
2016-11-28T03:29:20.605Z,0.68
2016-11-28T03:30:20.614Z,0.72
2016-11-28T03:31:20.633Z,0.78
2016-11-28T03:32:20.645Z,0.8
2016-11-28T03:33:20.718Z,0.66
2016-11-28T03:34:20.674Z,0.72
2016-11-28T03:35:20.699Z,0.76
2016-11-28T03:36:20.712Z,0.68
2016-11-28T03:37:35.645Z,0.69
2016-11-28T03:38:20.744Z,0.75
2016-11-28T03:39:20.750Z,0.72
2016-11-28T03:40:20.764Z,0.75
2016-11-28T03:41:20.781Z,0.73
2016-11-28T03:43:20.811Z,0.69
2016-11-28T03:44:20.827Z,0.69
2016-11-28T03:45:20.843Z,0.83
2016-11-28T03:46:20.854Z,0.8
2016-11-28T03:47:20.868Z,0.84
2016-11-28T03:49:20.898Z,0.88
2016-11-28T03:51:35.851Z,0.73
2016-11-28T03:52:20.944Z,0.73
2016-11-28T03:53:35.883Z,0.62
2016-11-28T03:55:35.938Z,0.72
2016-11-28T03:57:21.018Z,0.72
2016-11-28T03:58:21.029Z,0.76
2016-11-28T03:59:21.039Z,0.73
2016-11-28T04:00:21.056Z,0.86
2016-11-28T04:01:21.078Z,0.86
2016-11-28T04:02:21.082Z,0.73
2016-11-28T04:03:21.099Z,0.72
2016-11-28T04:04:21.115Z,0.7
2016-11-28T04:05:21.133Z,0.69
2016-11-28T04:06:21.145Z,0.69
2016-11-28T04:07:36.081Z,0.58
2016-11-28T04:08:21.174Z,0.6
2016-11-28T04:09:36.110Z,0.62
2016-11-28T04:10:21.199Z,0.68
2016-11-28T04:11:21.218Z,0.6
2016-11-28T04:12:21.231Z,0.62
2016-11-28T04:13:21.244Z,0.66
2016-11-28T04:14:21.268Z,0.61
2016-11-28T04:15:21.274Z,0.62
2016-11-28T04:16:21.292Z,0.66
2016-11-28T04:17:21.303Z,0.57
2016-11-28T04:18:21.318Z,0.51
2016-11-28T04:20:21.348Z,0.62
2016-11-28T04:21:21.364Z,0.61
2016-11-28T04:22:21.376Z,0.69
2016-11-28T04:23:21.398Z,0.66
2016-11-28T04:24:21.406Z,0.6
2016-11-28T04:25:36.341Z,0.6
2016-11-28T04:27:36.369Z,0.62
2016-11-28T04:28:21.468Z,0.61
2016-11-28T04:29:21.480Z,0.55
2016-11-28T04:30:21.495Z,0.58
2016-11-28T04:31:21.509Z,0.68
2016-11-28T04:32:21.528Z,0.57
2016-11-28T04:33:21.536Z,0.53
2016-11-28T04:34:21.553Z,0.46
2016-11-28T04:35:21.564Z,0.42
2016-11-28T04:36:21.574Z,0.51
2016-11-28T04:37:21.591Z,0.47
2016-11-28T04:38:21.610Z,0.38
2016-11-28T04:39:36.545Z,0.38
2016-11-28T04:40:36.558Z,0.39
2016-11-28T04:41:36.571Z,0.33
2016-11-28T04:42:36.637Z,0.53
2016-11-28T04:43:21.688Z,0.53
2016-11-28T04:44:21.694Z,0.55
2016-11-28T04:45:21.709Z,0.57
2016-11-28T04:46:21.720Z,0.53
2016-11-28T04:47:21.741Z,0.53
2016-11-28T04:48:21.796Z,0.58
2016-11-28T04:49:21.771Z,0.58
2016-11-28T04:50:21.781Z,0.6
2016-11-28T04:51:21.798Z,0.57
2016-11-28T04:53:21.825Z,0.58
2016-11-28T04:54:21.836Z,0.58
2016-11-28T04:55:21.857Z,0.61
2016-11-28T04:56:21.863Z,0.55
2016-11-28T04:57:21.886Z,0.5
2016-11-28T04:58:36.817Z,0.5
2016-11-28T04:59:21.907Z,0.42
2016-11-28T05:00:21.946Z,0.41
2016-11-28T05:01:21.939Z,0.36
2016-11-28T05:02:21.948Z,0.33
2016-11-28T05:03:21.969Z,0.57
2016-11-28T05:04:22.291Z,0.46
2016-11-28T05:05:22.002Z,0.55
2016-11-28T05:06:22.012Z,0.46
2016-11-28T05:07:22.022Z,0.5
2016-11-28T05:08:22.040Z,0.39
2016-11-28T05:09:22.053Z,0.47
2016-11-28T05:10:22.067Z,0.39
2016-11-28T05:11:22.080Z,0.39
2016-11-28T05:12:37.020Z,0.53
2016-11-28T05:14:22.128Z,0.36
2016-11-28T05:15:22.141Z,0.38
2016-11-28T05:16:22.158Z,0.35
2016-11-28T05:17:22.171Z,0.38
2016-11-28T05:18:22.184Z,0.35
2016-11-28T05:19:22.196Z,0.35
2016-11-28T05:20:22.212Z,0.38
2016-11-28T05:21:22.232Z,0.36
2016-11-28T05:22:22.241Z,0.42
2016-11-28T05:23:22.251Z,0.35
2016-11-28T05:24:22.270Z,0.31
2016-11-28T05:25:22.291Z,0.31
2016-11-28T05:26:37.225Z,0.26
2016-11-28T05:27:22.318Z,0.23
2016-11-28T05:28:37.253Z,0.17
2016-11-28T05:29:22.345Z,0.31
2016-11-28T05:30:37.278Z,0.26
2016-11-28T05:31:22.373Z,0.28
2016-11-28T05:33:22.408Z,0.41
2016-11-28T05:34:22.413Z,0.31
2016-11-28T05:35:22.430Z,0.29
2016-11-28T05:37:22.460Z,0.35
2016-11-28T05:38:22.469Z,0.35
2016-11-28T05:39:22.484Z,0.35
2016-11-28T05:40:22.510Z,0.35
2016-11-28T05:41:22.514Z,0.38
2016-11-28T05:42:22.523Z,0.35
2016-11-28T05:43:22.543Z,0.39
2016-11-28T05:44:37.480Z,0.33
2016-11-28T05:45:22.577Z,0.31
2016-11-28T05:46:22.588Z,0.29
2016-11-28T05:47:22.598Z,0.26
2016-11-28T05:48:22.612Z,0.29
2016-11-28T05:49:22.627Z,0.26
2016-11-28T05:50:22.640Z,0.31
2016-11-28T05:51:22.661Z,0.31
2016-11-28T05:52:22.671Z,0.36
2016-11-28T05:53:22.681Z,0.36
2016-11-28T05:54:22.735Z,0.39
2016-11-28T05:55:22.716Z,0.38
2016-11-28T05:56:22.730Z,0.33
2016-11-28T05:58:37.682Z,0.32
2016-11-28T05:59:22.775Z,0.38
2016-11-28T06:00:37.705Z,0.29
2016-11-28T06:01:22.805Z,0.35
2016-11-28T06:02:22.818Z,0.36
2016-11-28T06:03:22.831Z,0.39
2016-11-28T06:04:22.845Z,0.35
2016-11-28T06:05:22.859Z,0.2
2016-11-28T06:06:22.868Z,0.29
2016-11-28T06:07:23.193Z,0.31
2016-11-28T06:08:22.902Z,0.41
2016-11-28T06:09:22.916Z,0.35
2016-11-28T06:10:22.933Z,0.35
2016-11-28T06:11:23.243Z,0.35
2016-11-28T06:12:22.955Z,0.35
2016-11-28T06:13:22.970Z,0.14
2016-11-28T06:14:37.911Z,0.24
2016-11-28T06:15:37.926Z,0.32
2016-11-28T06:16:37.936Z,0.24
2016-11-28T06:17:23.029Z,0.14
2016-11-28T06:18:23.045Z,0.15
2016-11-28T06:19:23.059Z,0.17
2016-11-28T06:20:23.076Z,0.15
2016-11-28T06:21:23.087Z,0.18
2016-11-28T06:22:23.104Z,0.29
2016-11-28T06:23:23.162Z,0.2
2016-11-28T06:24:23.124Z,0.21
2016-11-28T06:25:23.140Z,0.31
2016-11-28T06:27:23.174Z,0.31
2016-11-28T06:29:23.198Z,0.31
2016-11-28T06:30:23.220Z,0.2
2016-11-28T06:31:23.229Z,0.26
2016-11-28T06:32:23.243Z,0.15
2016-11-28T06:33:23.260Z,0.18
2016-11-28T06:34:23.273Z,0.17
2016-11-28T06:35:23.292Z,0.23
2016-11-28T06:36:23.299Z,0.17
2016-11-28T06:37:23.312Z,0.14
2016-11-28T06:38:23.327Z,0.26
2016-11-28T06:39:23.352Z,0.14
2016-11-28T06:40:23.359Z,0.17
2016-11-28T06:41:23.366Z,0.17
2016-11-28T06:42:23.386Z,0.18
2016-11-28T06:43:23.398Z,0.11
2016-11-28T06:44:23.416Z,0.18
2016-11-28T06:45:23.434Z,0.18
2016-11-28T06:46:23.440Z,0.36
2016-11-28T06:47:38.377Z,0.33
2016-11-28T06:48:23.468Z,0.35
2016-11-28T06:49:23.535Z,0.36
2016-11-28T06:50:23.500Z,0.31
2016-11-28T06:51:23.520Z,0.31
2016-11-28T06:52:23.529Z,0.28
2016-11-28T06:53:23.542Z,0.33
2016-11-28T06:54:23.557Z,0.21
2016-11-28T06:55:23.572Z,0.31
2016-11-28T06:56:23.785Z,0.29
2016-11-28T06:57:23.647Z,0.31
2016-11-28T06:59:23.628Z,0.33
2016-11-28T07:01:23.654Z,0.39
2016-11-28T07:02:23.676Z,0.33
2016-11-28T07:03:38.607Z,0.39
2016-11-28T07:04:23.702Z,0.38
2016-11-28T07:05:23.712Z,0.39
2016-11-28T07:06:23.732Z,0.53
2016-11-28T07:07:23.743Z,0.33
2016-11-28T07:08:23.756Z,0.38
2016-11-28T07:09:23.769Z,0.49
2016-11-28T07:10:23.781Z,0.51
2016-11-28T07:11:23.803Z,0.57
2016-11-28T07:12:23.826Z,0.5
2016-11-28T07:13:23.825Z,0.51
2016-11-28T07:14:23.850Z,0.62
2016-11-28T07:15:23.859Z,0.49
2016-11-28T07:16:23.874Z,0.61
2016-11-28T07:17:38.812Z,0.72
2016-11-28T07:18:23.903Z,0.68
2016-11-28T07:19:38.835Z,0.69
2016-11-28T07:20:23.933Z,0.68
2016-11-28T07:21:23.945Z,0.72
2016-11-28T07:22:24.011Z,0.61
2016-11-28T07:23:23.970Z,0.7
2016-11-28T07:24:23.990Z,0.7
2016-11-28T07:25:24.001Z,0.69
2016-11-28T07:26:24.018Z,0.76
2016-11-28T07:27:24.028Z,0.79
2016-11-28T07:28:24.049Z,0.66
2016-11-28T07:29:24.058Z,0.78
2016-11-28T07:30:24.072Z,0.8
2016-11-28T07:32:24.110Z,0.79
2016-11-28T07:33:24.114Z,0.86
2016-11-28T07:34:39.053Z,0.87
2016-11-28T07:35:39.069Z,0.84
2016-11-28T07:36:24.165Z,0.87
2016-11-28T07:37:24.181Z,0.84
2016-11-28T07:38:24.492Z,0.78
2016-11-28T07:39:24.203Z,0.8
2016-11-28T07:40:24.215Z,0.78
2016-11-28T07:41:24.228Z,0.78
2016-11-28T07:42:24.245Z,0.7
2016-11-28T07:43:24.261Z,0.75
2016-11-28T07:45:24.291Z,0.79
2016-11-28T07:46:24.304Z,0.73
2016-11-28T07:47:24.324Z,0.65
2016-11-28T07:48:24.338Z,0.65
2016-11-28T07:49:24.345Z,0.76
2016-11-28T07:50:39.284Z,0.83
2016-11-28T07:51:24.381Z,0.66
2016-11-28T07:52:39.313Z,0.84
2016-11-28T07:53:24.412Z,0.97
2016-11-28T07:54:24.427Z,1.05
2016-11-28T07:55:24.441Z,0.97
2016-11-28T07:56:24.452Z,1.02
2016-11-28T07:57:24.469Z,1.02
2016-11-28T07:58:24.485Z,1.02
2016-11-28T07:59:24.493Z,1.05
2016-11-28T08:00:24.507Z,1.16
2016-11-28T08:01:24.522Z,1.18
2016-11-28T08:02:24.536Z,1.05
2016-11-28T08:04:24.572Z,1.12
2016-11-28T08:05:24.589Z,1.12
2016-11-28T08:06:24.606Z,1.14
2016-11-28T08:07:24.620Z,1.18
2016-11-28T08:08:24.670Z,1.11
2016-11-28T08:09:24.651Z,1.04
2016-11-28T08:10:24.662Z,1.04
2016-11-28T08:11:24.675Z,1.09
2016-11-28T08:12:39.620Z,0.97
2016-11-28T08:13:24.709Z,1.02
2016-11-28T08:14:24.717Z,1.12
2016-11-28T08:15:24.733Z,1.02
2016-11-28T08:16:24.749Z,1.2
2016-11-28T08:17:24.792Z,1.09
2016-11-28T08:18:24.780Z,0.97
2016-11-28T08:19:39.719Z,1
2016-11-28T08:20:39.732Z,0.97
2016-11-28T08:22:39.757Z,1.05
2016-11-28T08:23:24.893Z,1.18
2016-11-28T08:24:24.875Z,1.16
2016-11-28T08:25:24.888Z,1.3
2016-11-28T08:26:24.898Z,1.24
2016-11-28T08:27:24.919Z,1.24
2016-11-28T08:28:24.927Z,1.32
2016-11-28T08:29:24.946Z,1.47
2016-11-28T08:30:24.956Z,1.44
2016-11-28T08:31:24.973Z,1.47
2016-11-28T08:32:24.991Z,1.58
2016-11-28T08:33:25.004Z,1.58
2016-11-28T08:34:25.016Z,1.4
2016-11-28T08:35:25.032Z,1.36
2016-11-28T08:36:25.047Z,1.36
2016-11-28T08:37:25.062Z,1.32
2016-11-28T08:38:40.002Z,1.32
2016-11-28T08:39:40.014Z,1.33
2016-11-28T08:40:25.116Z,1.26
2016-11-28T08:41:25.128Z,1.14
2016-11-28T08:42:25.142Z,1.14
2016-11-28T08:43:25.151Z,1.11
2016-11-28T08:44:25.178Z,1.16
2016-11-28T08:45:25.188Z,1.2
2016-11-28T08:46:25.198Z,1.2
2016-11-28T08:47:25.214Z,1.15
2016-11-28T08:48:25.227Z,1.2
2016-11-28T08:49:25.255Z,1.34
2016-11-28T08:50:25.261Z,1.3
2016-11-28T08:51:25.273Z,1.29
2016-11-28T08:52:25.609Z,1.3
2016-11-28T08:53:25.310Z,1.3
2016-11-28T08:54:40.245Z,1.4
2016-11-28T08:55:25.337Z,1.36
2016-11-28T08:56:25.356Z,1.36
2016-11-28T08:57:25.366Z,1.45
2016-11-28T08:58:25.392Z,1.48
2016-11-28T08:59:25.395Z,1.54
2016-11-28T09:00:25.415Z,1.54
2016-11-28T09:01:25.436Z,1.58
2016-11-28T09:02:25.444Z,1.6
2016-11-28T09:03:25.458Z,1.54
2016-11-28T09:04:25.472Z,1.5
2016-11-28T09:05:25.489Z,1.51
2016-11-28T09:06:25.505Z,1.58
2016-11-28T09:08:25.536Z,1.6
2016-11-28T09:09:25.551Z,1.62
2016-11-28T09:10:40.489Z,1.54
2016-11-28T09:11:25.587Z,1.54
2016-11-28T09:12:25.597Z,1.4
2016-11-28T09:13:25.610Z,1.52
2016-11-28T09:15:25.643Z,1.6
2016-11-28T09:16:25.658Z,1.42
2016-11-28T09:17:25.673Z,1.62
2016-11-28T09:18:40.762Z,1.52
2016-11-28T09:19:25.703Z,1.65
2016-11-28T09:20:25.722Z,1.65
2016-11-28T09:21:25.735Z,1.63
2016-11-28T09:23:25.767Z,1.66
2016-11-28T09:24:40.704Z,1.68
2016-11-28T09:25:40.718Z,1.76
2016-11-28T09:26:26.112Z,1.84
2016-11-28T09:27:40.748Z,1.72
2016-11-28T09:28:25.843Z,1.72
2016-11-28T09:29:25.857Z,1.7
2016-11-28T09:30:25.875Z,1.7
2016-11-28T09:31:25.890Z,1.7
2016-11-28T09:32:25.902Z,1.76
2016-11-28T09:33:25.921Z,1.72
2016-11-28T09:34:25.931Z,1.8
2016-11-28T09:35:25.950Z,1.87
2016-11-28T09:36:25.962Z,1.93
2016-11-28T09:37:25.984Z,2.02
2016-11-28T09:38:25.994Z,1.99
2016-11-28T09:39:26.013Z,1.88
2016-11-28T09:40:26.035Z,1.84
2016-11-28T09:42:26.058Z,2
2016-11-28T09:43:26.072Z,1.99
2016-11-28T09:44:26.090Z,1.9
2016-11-28T09:45:26.101Z,1.98
2016-11-28T09:46:26.124Z,1.99
2016-11-28T09:47:26.138Z,1.93
2016-11-28T09:48:26.150Z,1.95
2016-11-28T09:49:26.166Z,1.99
2016-11-28T09:50:26.241Z,2.02
2016-11-28T09:51:26.200Z,1.98
2016-11-28T09:52:26.222Z,1.86
2016-11-28T09:53:26.234Z,1.81
2016-11-28T09:54:26.244Z,1.87
2016-11-28T09:55:41.186Z,2.02
2016-11-28T09:56:26.326Z,1.98
2016-11-28T09:57:41.211Z,2
2016-11-28T09:58:26.305Z,2.1
2016-11-28T09:59:26.329Z,2.09
2016-11-28T10:00:26.334Z,2.14
2016-11-28T10:01:26.363Z,2.34
2016-11-28T10:02:26.373Z,2.27
2016-11-28T10:03:26.386Z,2.31
2016-11-28T10:04:26.403Z,2.27
2016-11-28T10:05:26.417Z,2.16
2016-11-28T10:06:26.433Z,2.24
2016-11-28T10:07:26.445Z,2.31
2016-11-28T10:08:26.458Z,2.31
2016-11-28T10:09:26.481Z,2.31
2016-11-28T10:10:41.419Z,2.31
2016-11-28T10:11:26.559Z,2.38
2016-11-28T10:12:41.447Z,2.34
2016-11-28T10:13:41.466Z,2.45
2016-11-28T10:14:26.582Z,2.45
2016-11-28T10:15:26.574Z,2.46
2016-11-28T10:16:26.592Z,2.45
2016-11-28T10:17:26.606Z,2.49
2016-11-28T10:18:26.619Z,2.59
2016-11-28T10:19:26.635Z,2.56
2016-11-28T10:20:26.650Z,2.63
2016-11-28T10:21:26.669Z,2.52
2016-11-28T10:22:26.685Z,2.61
2016-11-28T10:23:26.700Z,2.56
2016-11-28T10:24:26.715Z,2.57
2016-11-28T10:25:26.768Z,2.49
2016-11-28T10:26:26.745Z,2.56
2016-11-28T10:27:26.766Z,2.53
2016-11-28T10:28:26.778Z,2.46
2016-11-28T10:29:41.718Z,2.52
2016-11-28T10:30:26.813Z,2.49
2016-11-28T10:31:26.829Z,2.28
2016-11-28T10:32:26.845Z,2.35
2016-11-28T10:33:26.862Z,2.43
2016-11-28T10:34:26.868Z,2.45
2016-11-28T10:35:26.889Z,2.46
2016-11-28T10:36:26.900Z,2.52
2016-11-28T10:37:26.919Z,2.46
2016-11-28T10:38:26.935Z,2.49
2016-11-28T10:39:26.948Z,2.61
2016-11-28T10:40:26.971Z,2.81
2016-11-28T10:41:26.982Z,2.82
2016-11-28T10:42:26.997Z,2.82
2016-11-28T10:43:41.939Z,2.77
2016-11-28T10:44:41.955Z,2.78
2016-11-28T10:45:41.967Z,2.78
2016-11-28T10:46:27.062Z,2.81
2016-11-28T10:47:27.111Z,2.89
2016-11-28T10:48:27.097Z,2.92
2016-11-28T10:49:27.111Z,2.97
2016-11-28T10:50:27.130Z,3.08
2016-11-28T10:51:27.159Z,3.13
2016-11-28T10:52:27.160Z,3.31
2016-11-28T10:53:27.179Z,3.05
2016-11-28T10:54:27.197Z,3.17
2016-11-28T10:55:27.209Z,3.2
2016-11-28T10:56:27.227Z,3.2
2016-11-28T10:57:27.235Z,3.31
2016-11-28T10:58:42.177Z,3.29
2016-11-28T10:59:27.268Z,3.23
2016-11-28T11:00:42.207Z,3.15
2016-11-28T11:02:42.238Z,3.08
2016-11-28T11:03:42.255Z,2.97
2016-11-28T11:04:27.660Z,2.99
2016-11-28T11:05:27.362Z,2.95
2016-11-28T11:06:27.381Z,2.97
2016-11-28T11:07:27.399Z,3.03
2016-11-28T11:08:27.414Z,3.05
2016-11-28T11:09:27.431Z,3.14
2016-11-28T11:10:27.451Z,3.2
2016-11-28T11:11:27.465Z,3.39
2016-11-28T11:12:27.478Z,3.39
2016-11-28T11:13:27.490Z,3.33
2016-11-28T11:14:27.506Z,3.31
2016-11-28T11:15:27.531Z,3.35
2016-11-28T11:16:27.551Z,3.33
2016-11-28T11:17:27.565Z,3.36
2016-11-28T11:18:27.579Z,3.31
2016-11-28T11:19:27.589Z,3.57
2016-11-28T11:20:27.609Z,3.62
2016-11-28T11:21:27.625Z,3.65
2016-11-28T11:22:27.647Z,3.68
2016-11-28T11:23:27.664Z,3.7
2016-11-28T11:24:27.673Z,3.84
2016-11-28T11:26:27.708Z,3.84
2016-11-28T11:27:27.723Z,3.91
2016-11-28T11:30:27.776Z,4.05
2016-11-28T11:31:27.785Z,3.97
2016-11-28T11:32:42.730Z,4.05
2016-11-28T11:33:27.824Z,4.02
2016-11-28T11:34:27.835Z,4.04
2016-11-28T11:35:27.855Z,4.09
2016-11-28T11:36:27.878Z,4.11
2016-11-28T11:37:27.893Z,4.11
2016-11-28T11:38:27.908Z,4.05
2016-11-28T11:39:27.918Z,4.12
2016-11-28T11:40:27.935Z,3.96
2016-11-28T11:41:28.001Z,3.84
2016-11-28T11:42:27.970Z,3.83
2016-11-28T11:43:27.991Z,3.78
2016-11-28T11:44:28.006Z,3.91
2016-11-28T11:45:28.020Z,3.83
2016-11-28T11:46:28.038Z,3.88
2016-11-28T11:47:28.050Z,3.84
2016-11-28T11:48:42.996Z,3.86
2016-11-28T11:49:43.007Z,3.84
2016-11-28T11:50:28.110Z,3.86
2016-11-28T11:51:28.118Z,3.78
2016-11-28T11:52:28.143Z,3.93
2016-11-28T11:53:28.150Z,4
2016-11-28T11:54:28.171Z,3.86
2016-11-28T11:55:28.187Z,3.87
2016-11-28T11:56:28.201Z,3.83
2016-11-28T11:57:28.225Z,3.9
2016-11-28T11:58:28.238Z,3.87
2016-11-28T11:59:28.255Z,3.88
2016-11-28T12:00:28.268Z,3.98
2016-11-28T12:01:28.287Z,3.88
2016-11-28T12:02:43.229Z,3.98
2016-11-28T12:03:28.328Z,4.04
2016-11-28T12:04:43.259Z,3.94
2016-11-28T12:05:43.278Z,3.86
2016-11-28T12:06:28.377Z,3.78
2016-11-28T12:07:28.391Z,3.69
2016-11-28T12:08:28.449Z,3.78
2016-11-28T12:09:28.417Z,3.79
2016-11-28T12:10:28.437Z,3.57
2016-11-28T12:11:28.455Z,3.6
2016-11-28T12:12:28.473Z,3.58
2016-11-28T12:13:28.492Z,3.6
2016-11-28T12:14:28.812Z,3.6
2016-11-28T12:15:28.521Z,3.54
2016-11-28T12:16:28.542Z,3.5
2016-11-28T12:17:28.561Z,3.5
2016-11-28T12:18:28.571Z,3.48
2016-11-28T12:19:28.591Z,3.43
2016-11-28T12:20:43.529Z,3.45
2016-11-28T12:21:28.622Z,3.52
2016-11-28T12:22:28.636Z,3.55
2016-11-28T12:23:28.705Z,3.5
2016-11-28T12:24:28.671Z,3.5
2016-11-28T12:25:28.685Z,3.55
2016-11-28T12:26:28.705Z,3.57
2016-11-28T12:27:28.722Z,3.52
2016-11-28T12:28:28.744Z,3.61
2016-11-28T12:29:28.752Z,3.5
2016-11-28T12:30:35.506Z,3.6
2016-11-28T12:32:28.858Z,3.58
2016-11-28T12:33:28.829Z,3.6
2016-11-28T12:34:28.837Z,3.62
2016-11-28T12:35:43.777Z,3.66
2016-11-28T12:36:28.870Z,3.6
2016-11-28T12:37:43.810Z,3.51
2016-11-28T12:38:28.906Z,3.54
2016-11-28T12:39:28.926Z,3.47
2016-11-28T12:40:28.945Z,3.61
2016-11-28T12:41:28.953Z,3.65
2016-11-28T12:42:28.977Z,3.61
2016-11-28T12:43:28.991Z,3.62
2016-11-28T12:44:29.004Z,3.58
2016-11-28T12:45:29.020Z,3.65
2016-11-28T12:46:29.042Z,3.66
2016-11-28T12:47:29.057Z,3.65
2016-11-28T12:48:29.102Z,3.61
2016-11-28T12:49:29.141Z,3.62
2016-11-28T12:50:29.107Z,3.55
2016-11-28T12:51:29.125Z,3.58
2016-11-28T12:52:29.137Z,3.65
2016-11-28T12:53:29.154Z,3.6
2016-11-28T12:54:29.176Z,3.54
2016-11-28T12:55:29.189Z,3.52
2016-11-28T12:56:29.204Z,3.65
2016-11-28T12:57:29.226Z,3.65
2016-11-28T12:58:29.236Z,3.6
2016-11-28T12:59:29.260Z,3.52
2016-11-28T13:00:29.272Z,3.57
2016-11-28T13:01:29.288Z,3.51
2016-11-28T13:02:29.311Z,3.52
2016-11-28T13:03:29.318Z,3.51
2016-11-28T13:04:29.338Z,3.51
2016-11-28T13:05:29.356Z,3.5
2016-11-28T13:06:29.375Z,3.6
2016-11-28T13:07:44.313Z,3.58
2016-11-28T13:08:44.325Z,3.58
2016-11-28T13:09:29.416Z,3.52
2016-11-28T13:10:29.439Z,3.58
2016-11-28T13:11:29.459Z,3.62
2016-11-28T13:12:29.470Z,3.65
2016-11-28T13:13:29.485Z,3.73
2016-11-28T13:14:29.504Z,3.8
2016-11-28T13:15:29.520Z,3.84
2016-11-28T13:16:29.537Z,3.73
2016-11-28T13:17:29.590Z,3.87
2016-11-28T13:18:29.571Z,3.83
2016-11-28T13:19:29.587Z,3.84
2016-11-28T13:20:44.579Z,3.84
2016-11-28T13:21:29.616Z,3.87
2016-11-28T13:22:29.640Z,3.83
2016-11-28T13:23:44.573Z,3.88
2016-11-28T13:24:29.675Z,3.84
2016-11-28T13:25:29.691Z,3.87
2016-11-28T13:26:29.708Z,3.87
2016-11-28T13:27:29.719Z,3.79
2016-11-28T13:28:29.738Z,3.87
2016-11-28T13:29:29.753Z,3.69
2016-11-28T13:30:29.768Z,3.62
2016-11-28T13:31:29.787Z,3.69
2016-11-28T13:32:29.801Z,3.68
2016-11-28T13:33:29.821Z,3.69
2016-11-28T13:34:29.838Z,3.73
2016-11-28T13:35:30.154Z,3.72
2016-11-28T13:36:29.873Z,3.76
2016-11-28T13:37:29.886Z,3.73
2016-11-28T13:38:29.907Z,3.7
2016-11-28T13:39:44.847Z,3.75
2016-11-28T13:40:29.995Z,3.73
2016-11-28T13:41:30.004Z,3.68
2016-11-28T13:42:29.971Z,3.8
2016-11-28T13:43:29.984Z,3.76
2016-11-28T13:44:30.003Z,3.72
2016-11-28T13:45:30.020Z,3.83
2016-11-28T13:46:30.043Z,3.84
2016-11-28T13:47:30.047Z,3.84
2016-11-28T13:48:30.068Z,3.84
2016-11-28T13:49:30.090Z,3.9
2016-11-28T13:50:30.102Z,3.83
2016-11-28T13:52:30.133Z,3.87
2016-11-28T13:53:30.154Z,3.78
2016-11-28T13:54:30.174Z,4
2016-11-28T13:55:45.108Z,3.9
2016-11-28T13:56:30.199Z,3.93
2016-11-28T13:57:30.221Z,3.93
2016-11-28T13:58:30.237Z,3.9
2016-11-28T13:59:30.254Z,3.86
2016-11-28T14:00:30.270Z,3.83
2016-11-28T14:01:30.293Z,3.8